createdAt,value
2022-11-18T00:01:29.490Z,18.93
2022-11-18T00:03:57.786Z,18.93
2022-11-18T00:06:27.738Z,20.27
2022-11-18T00:08:56.592Z,18.80
2022-11-18T00:11:44.839Z,18.93
2022-11-18T00:14:23.512Z,16.80
2022-11-18T00:16:54.954Z,17.53
2022-11-18T00:19:24.838Z,15.57
2022-11-18T00:21:53.475Z,15.90
2022-11-18T00:24:22.182Z,15.93
2022-11-18T00:26:50.688Z,16.73
2022-11-18T00:29:21.996Z,20.80
2022-11-18T00:31:50.886Z,15.73
2022-11-18T00:34:19.600Z,14.33
2022-11-18T00:36:48.716Z,14.73
2022-11-18T00:39:18.596Z,14.87
2022-11-18T00:42:05.952Z,15.83
2022-11-18T00:44:35.681Z,17.13
2022-11-18T00:47:04.124Z,14.93
2022-11-18T00:49:32.272Z,14.57
2022-11-18T00:52:01.200Z,15.93
2022-11-18T00:54:29.456Z,17.20
2022-11-18T00:56:57.733Z,17.43
2022-11-18T00:59:25.944Z,16.40
2022-11-18T01:01:55.774Z,16.00
2022-11-18T01:04:24.511Z,16.70
2022-11-18T01:06:53.106Z,16.27
2022-11-18T01:09:21.478Z,15.60
2022-11-18T01:12:07.396Z,17.13
2022-11-18T01:14:35.407Z,15.67
2022-11-18T01:17:05.022Z,15.43
2022-11-18T01:19:33.129Z,16.23
2022-11-18T01:22:03.374Z,16.23
2022-11-18T01:24:31.936Z,15.77
2022-11-18T01:27:00.348Z,15.60
2022-11-18T01:29:28.382Z,14.47
2022-11-18T01:32:25.868Z,14.57
2022-11-18T01:34:46.616Z,15.80
2022-11-18T01:37:15.049Z,13.97
2022-11-18T01:39:43.200Z,14.23
2022-11-18T01:42:16.084Z,15.53
2022-11-18T01:45:09.886Z,15.50
2022-11-18T01:47:43.362Z,15.20
2022-11-18T01:50:16.311Z,14.17
2022-11-18T01:52:48.880Z,15.53
2022-11-18T01:55:24.992Z,14.67
2022-11-18T01:57:58.147Z,14.97
2022-11-18T02:00:26.280Z,13.07
2022-11-18T02:02:55.271Z,12.40
2022-11-18T02:05:26.100Z,13.77
2022-11-18T02:07:54.824Z,12.67
2022-11-18T02:10:26.012Z,13.60
2022-11-18T02:12:56.974Z,13.00
2022-11-18T02:15:34.234Z,12.07
2022-11-18T02:18:11.658Z,11.67
2022-11-18T02:20:44.949Z,14.07
2022-11-18T02:23:58.322Z,13.47
2022-11-18T02:26:55.899Z,13.20
2022-11-18T02:29:29.925Z,13.27
2022-11-18T02:32:02.456Z,14.87
2022-11-18T02:34:41.754Z,12.40
2022-11-18T02:37:17.913Z,14.37
2022-11-18T02:39:49.896Z,14.53
2022-11-18T02:42:18.832Z,14.97
2022-11-18T02:44:52.040Z,15.47
2022-11-18T02:47:22.024Z,17.03
2022-11-18T02:49:54.177Z,16.10
2022-11-18T02:52:23.571Z,15.43
2022-11-18T02:54:53.650Z,14.93
2022-11-18T02:57:23.159Z,15.20
2022-11-18T02:59:52.782Z,17.00
2022-11-18T03:02:24.898Z,15.57
2022-11-18T03:04:57.431Z,16.73
2022-11-18T03:07:31.569Z,16.73
2022-11-18T03:10:01.451Z,16.43
2022-11-18T03:12:37.835Z,18.17
2022-11-18T03:15:17.228Z,18.70
2022-11-18T03:17:51.769Z,16.23
2022-11-18T03:20:25.680Z,20.00
2022-11-18T03:22:57.031Z,20.73
2022-11-18T03:25:32.706Z,18.20
2022-11-18T03:28:07.188Z,18.53
2022-11-18T03:30:40.683Z,19.57
2022-11-18T03:33:13.081Z,21.47
2022-11-18T03:35:45.987Z,27.77
2022-11-18T03:38:17.877Z,30.30
2022-11-18T03:40:56.052Z,29.43
2022-11-18T03:43:27.526Z,33.70
2022-11-18T03:46:03.476Z,33.33
2022-11-18T03:48:35.640Z,25.93
2022-11-18T03:51:08.232Z,24.20
2022-11-18T03:53:41.485Z,21.90
2022-11-18T03:56:17.317Z,15.63
2022-11-18T03:58:52.167Z,15.67
2022-11-18T04:01:28.591Z,16.70
2022-11-18T04:03:56.744Z,15.70
2022-11-18T04:06:31.170Z,19.43
2022-11-18T04:09:07.842Z,20.17
2022-11-18T04:12:00.825Z,25.23
2022-11-18T04:14:29.479Z,28.63
2022-11-18T04:16:59.469Z,27.10
2022-11-18T04:19:27.474Z,28.10
2022-11-18T04:21:55.805Z,27.67
2022-11-18T04:24:23.797Z,23.63
2022-11-18T04:26:52.227Z,22.07
2022-11-18T04:29:20.497Z,19.80
2022-11-18T04:31:49.125Z,20.47
2022-11-18T04:34:18.771Z,18.80
2022-11-18T04:36:47.193Z,17.90
2022-11-18T04:39:15.731Z,17.23
2022-11-18T04:41:56.706Z,16.77
2022-11-18T04:44:26.081Z,13.93
2022-11-18T04:46:55.920Z,14.37
2022-11-18T04:49:26.568Z,14.83
2022-11-18T04:51:55.752Z,15.23
2022-11-18T04:54:24.975Z,14.97
2022-11-18T04:56:53.736Z,15.60
2022-11-18T04:59:24.324Z,14.37
2022-11-18T05:01:53.555Z,14.40
2022-11-18T05:04:23.572Z,15.53
2022-11-18T05:06:54.253Z,13.87
2022-11-18T05:09:24.872Z,14.43
2022-11-18T05:12:13.435Z,14.13
2022-11-18T05:14:46.591Z,13.70
2022-11-18T05:17:17.968Z,13.20
2022-11-18T05:19:45.962Z,13.27
2022-11-18T05:22:16.371Z,14.43
2022-11-18T05:24:44.464Z,12.60
2022-11-18T05:27:13.091Z,15.13
2022-11-18T05:29:41.242Z,14.70
2022-11-18T05:32:09.916Z,13.63
2022-11-18T05:34:38.069Z,14.97
2022-11-18T05:37:06.719Z,12.77
2022-11-18T05:39:36.243Z,13.87
2022-11-18T05:42:22.397Z,14.33
2022-11-18T05:44:57.504Z,15.23
2022-11-18T05:47:26.485Z,15.03
2022-11-18T05:49:54.521Z,15.07
2022-11-18T05:52:23.019Z,18.77
2022-11-18T05:54:52.575Z,14.77
2022-11-18T05:57:20.991Z,14.93
2022-11-18T05:59:49.055Z,14.93
2022-11-18T06:02:20.871Z,14.80
2022-11-18T06:04:51.676Z,16.03
2022-11-18T06:07:23.470Z,14.17
2022-11-18T06:09:59.779Z,16.77
2022-11-18T06:12:36.189Z,15.13
2022-11-18T06:15:10.064Z,14.93
2022-11-18T06:17:44.188Z,15.80
2022-11-18T06:20:12.961Z,16.13
2022-11-18T06:22:46.270Z,14.47
2022-11-18T06:25:16.427Z,14.53
2022-11-18T06:27:45.975Z,16.40
2022-11-18T06:30:15.126Z,16.53
2022-11-18T06:32:43.566Z,16.97
2022-11-18T06:35:11.870Z,16.53
2022-11-18T06:37:40.391Z,15.80
2022-11-18T06:40:09.777Z,14.70
2022-11-18T06:42:56.821Z,17.33
2022-11-18T06:45:24.923Z,15.73
2022-11-18T06:47:57.001Z,14.60
2022-11-18T06:50:25.303Z,14.20
2022-11-18T06:52:54.306Z,14.17
2022-11-18T06:55:22.402Z,13.00
2022-11-18T06:57:52.032Z,13.50
2022-11-18T07:00:20.535Z,13.27
2022-11-18T07:02:48.799Z,12.90
2022-11-18T07:05:16.991Z,12.23
2022-11-18T07:07:45.377Z,11.93
2022-11-18T07:10:13.506Z,13.20
2022-11-18T07:12:41.831Z,11.13
2022-11-18T07:15:12.018Z,11.37
2022-11-18T07:17:40.405Z,12.13
2022-11-18T07:20:09.621Z,12.23
2022-11-18T07:22:38.000Z,11.50
2022-11-18T07:25:06.803Z,12.30
2022-11-18T07:27:35.074Z,12.13
2022-11-18T07:30:03.321Z,12.97
2022-11-18T07:32:33.911Z,11.87
2022-11-18T07:35:01.895Z,11.83
2022-11-18T07:37:30.192Z,12.87
2022-11-18T07:39:59.783Z,11.83
2022-11-18T07:42:28.137Z,10.30
2022-11-18T07:44:56.150Z,11.37
2022-11-18T07:47:24.585Z,10.30
2022-11-18T07:49:53.923Z,9.53
2022-11-18T07:52:22.397Z,11.17
2022-11-18T07:54:50.638Z,9.27
2022-11-18T07:57:18.940Z,10.90
2022-11-18T07:59:46.986Z,13.27
2022-11-18T08:02:15.385Z,8.73
2022-11-18T08:04:43.641Z,7.53
2022-11-18T08:07:14.106Z,10.03
2022-11-18T08:09:42.319Z,9.27
2022-11-18T08:12:10.733Z,11.80
2022-11-18T08:14:38.799Z,8.77
2022-11-18T08:17:07.125Z,11.63
2022-11-18T08:19:35.943Z,10.27
2022-11-18T08:22:04.256Z,9.87
2022-11-18T08:24:33.587Z,8.57
2022-11-18T08:27:02.076Z,8.43
2022-11-18T08:29:30.457Z,7.30
2022-11-18T08:31:59.240Z,6.47
2022-11-18T08:34:27.345Z,5.43
2022-11-18T08:36:56.232Z,5.90
2022-11-18T08:39:24.447Z,5.47
2022-11-18T08:41:54.099Z,4.37
2022-11-18T08:44:22.112Z,4.47
2022-11-18T08:46:50.668Z,4.60
2022-11-18T08:49:18.880Z,4.50
2022-11-18T08:51:47.323Z,5.93
2022-11-18T08:54:15.360Z,5.07
2022-11-18T08:56:43.756Z,5.37
2022-11-18T08:59:13.533Z,4.83
2022-11-18T09:01:43.649Z,4.93
2022-11-18T09:04:12.432Z,4.87
2022-11-18T09:06:40.774Z,5.37
2022-11-18T09:09:09.285Z,4.57
2022-11-18T09:11:40.092Z,5.00
2022-11-18T09:16:58.120Z,4.73
2022-11-18T09:22:14.835Z,4.20
2022-11-18T09:24:43.615Z,5.23
2022-11-18T09:27:16.694Z,3.77
2022-11-18T09:29:46.405Z,6.13
2022-11-18T09:32:16.217Z,6.93
2022-11-18T09:34:44.787Z,5.80
2022-11-18T09:37:12.819Z,4.63
2022-11-18T09:39:41.146Z,4.90
2022-11-18T09:42:27.882Z,6.20
2022-11-18T09:45:14.567Z,4.03
2022-11-18T09:47:45.530Z,5.07
2022-11-18T09:50:42.204Z,7.03
2022-11-18T09:53:12.616Z,5.13
2022-11-18T09:55:41.990Z,4.77
2022-11-18T09:58:19.287Z,5.13
2022-11-18T10:00:47.733Z,4.83
2022-11-18T10:03:27.083Z,5.67
2022-11-18T10:05:59.975Z,4.33
2022-11-18T10:08:32.738Z,5.73
2022-11-18T10:11:07.829Z,5.37
2022-11-18T10:13:49.905Z,5.50
2022-11-18T10:16:29.886Z,4.17
2022-11-18T10:19:06.417Z,4.47
2022-11-18T10:21:48.098Z,5.03
2022-11-18T10:24:20.757Z,5.90
2022-11-18T10:26:54.999Z,4.70
2022-11-18T10:29:23.847Z,6.20
2022-11-18T10:31:59.586Z,6.77
2022-11-18T10:34:30.663Z,6.57
2022-11-18T10:37:03.426Z,5.07
2022-11-18T10:39:31.983Z,5.90
2022-11-18T10:42:04.028Z,5.50
2022-11-18T10:44:37.785Z,6.83
2022-11-18T10:47:33.923Z,10.20
2022-11-18T10:50:28.806Z,5.33
2022-11-18T10:52:57.423Z,7.60
2022-11-18T10:55:25.934Z,6.47
2022-11-18T10:57:59.546Z,6.00
2022-11-18T11:00:37.189Z,5.30
2022-11-18T11:03:28.009Z,6.13
2022-11-18T11:06:24.610Z,5.77
2022-11-18T11:08:55.123Z,6.20
2022-11-18T11:11:26.437Z,8.20
2022-11-18T11:14:01.087Z,5.50
2022-11-18T11:16:31.399Z,7.47
2022-11-18T11:19:04.006Z,6.77
2022-11-18T11:21:33.502Z,5.60
2022-11-18T11:24:02.582Z,5.50
2022-11-18T11:29:48.152Z,6.60
2022-11-18T11:32:27.057Z,6.83
2022-11-18T11:35:03.948Z,5.30
2022-11-18T11:37:51.676Z,5.83
2022-11-18T11:40:26.954Z,5.90
2022-11-18T11:43:05.715Z,5.60
2022-11-18T11:45:41.200Z,5.10
2022-11-18T11:48:28.722Z,5.73
2022-11-18T11:51:05.106Z,5.70
2022-11-18T11:54:06.921Z,5.47
2022-11-18T11:56:40.942Z,5.53
2022-11-18T11:59:18.344Z,5.87
2022-11-18T12:01:58.674Z,6.47
2022-11-18T12:04:47.715Z,5.07
2022-11-18T12:07:20.307Z,5.50
2022-11-18T12:10:20.652Z,4.97
2022-11-18T12:12:55.474Z,5.40
2022-11-18T12:15:42.318Z,5.67
2022-11-18T12:18:16.814Z,4.90
2022-11-18T12:20:47.128Z,4.57
2022-11-18T12:23:19.390Z,6.20
2022-11-18T12:25:56.331Z,6.17
2022-11-18T12:28:28.047Z,5.47
2022-11-18T12:31:27.963Z,5.67
2022-11-18T12:33:58.448Z,6.87
2022-11-18T12:36:28.183Z,5.70
2022-11-18T12:38:57.544Z,5.60
2022-11-18T12:42:14.118Z,6.23
2022-11-18T12:44:44.034Z,6.50
2022-11-18T12:47:12.993Z,6.07
2022-11-18T12:50:16.199Z,6.60
2022-11-18T12:52:52.641Z,6.10
2022-11-18T12:55:31.642Z,6.93
2022-11-18T12:58:01.527Z,6.77
2022-11-18T13:00:52.247Z,6.20
2022-11-18T13:03:26.470Z,6.07
2022-11-18T13:06:02.419Z,5.63
2022-11-18T13:08:31.009Z,5.77
2022-11-18T13:11:25.349Z,5.30
2022-11-18T13:14:15.830Z,5.00
2022-11-18T13:17:02.884Z,5.73
2022-11-18T13:19:30.930Z,5.37
2022-11-18T13:22:18.991Z,5.47
2022-11-18T13:24:49.330Z,5.47
2022-11-18T13:27:32.428Z,5.40
2022-11-18T13:30:11.500Z,5.30
2022-11-18T13:32:44.190Z,5.97
2022-11-18T13:35:16.359Z,5.47
2022-11-18T13:37:53.078Z,5.17
2022-11-18T13:40:24.022Z,5.13
2022-11-18T13:42:52.536Z,4.80
2022-11-18T13:45:27.045Z,6.83
2022-11-18T13:47:59.532Z,5.03
2022-11-18T13:50:34.287Z,5.30
2022-11-18T13:53:15.643Z,4.67
2022-11-18T13:55:48.596Z,4.17
2022-11-18T13:59:02.718Z,6.00
2022-11-18T14:01:29.528Z,6.70
2022-11-18T14:04:00.631Z,6.20
2022-11-18T14:06:30.531Z,5.97
2022-11-18T14:09:07.673Z,5.30
2022-11-18T14:11:38.196Z,6.07
2022-11-18T14:14:06.798Z,6.43
2022-11-18T14:16:38.018Z,5.50
2022-11-18T14:19:07.015Z,7.70
2022-11-18T14:21:38.189Z,6.30
2022-11-18T14:24:07.101Z,5.87
2022-11-18T14:26:37.699Z,6.60
2022-11-18T14:29:21.097Z,5.43
2022-11-18T14:34:44.667Z,11.17
2022-11-18T14:37:15.008Z,6.70
2022-11-18T14:39:43.137Z,6.43
2022-11-18T14:42:14.057Z,5.67
2022-11-18T14:44:42.069Z,4.90
2022-11-18T14:47:20.372Z,5.10
2022-11-18T14:49:49.733Z,4.97
2022-11-18T14:52:18.112Z,5.17
2022-11-18T14:54:46.324Z,5.83
2022-11-18T14:57:17.172Z,5.17
2022-11-18T14:59:45.838Z,5.50
2022-11-18T15:02:16.175Z,6.13
2022-11-18T15:04:44.648Z,6.33
2022-11-18T15:07:23.101Z,6.20
2022-11-18T15:09:52.374Z,6.80
2022-11-18T15:12:20.772Z,5.73
2022-11-18T15:14:48.904Z,5.50
2022-11-18T15:17:20.546Z,6.30
2022-11-18T15:19:48.757Z,7.03
2022-11-18T15:22:18.750Z,6.03
2022-11-18T15:24:46.921Z,5.37
2022-11-18T15:27:15.315Z,5.00
2022-11-18T15:29:43.368Z,5.93
2022-11-18T15:32:11.679Z,5.83
2022-11-18T15:34:39.684Z,6.60
2022-11-18T15:37:08.210Z,5.20
2022-11-18T15:39:37.630Z,6.20
2022-11-18T15:42:06.032Z,7.87
2022-11-18T15:44:34.052Z,7.00
2022-11-18T15:47:02.463Z,7.03
2022-11-18T15:49:30.684Z,6.83
2022-11-18T15:51:59.643Z,7.17
2022-11-18T15:54:27.634Z,6.97
2022-11-18T15:56:57.287Z,7.97
2022-11-18T15:59:25.513Z,12.03
2022-11-18T16:01:57.013Z,13.13
2022-11-18T16:04:25.179Z,12.57
2022-11-18T16:06:54.233Z,11.20
2022-11-18T16:09:22.556Z,12.47
2022-11-18T16:12:08.648Z,10.00
2022-11-18T16:14:39.723Z,11.00
2022-11-18T16:17:08.170Z,10.43
2022-11-18T16:19:36.282Z,9.60
2022-11-18T16:22:04.597Z,10.23
2022-11-18T16:24:32.752Z,13.63
2022-11-18T16:27:04.306Z,12.30
2022-11-18T16:29:32.624Z,8.03
2022-11-18T16:32:02.775Z,7.47
2022-11-18T16:34:30.893Z,8.30
2022-11-18T16:37:01.276Z,8.57
2022-11-18T16:39:29.792Z,10.63
2022-11-18T16:42:06.958Z,8.73
2022-11-18T16:44:36.361Z,10.77
2022-11-18T16:47:12.682Z,8.90
2022-11-18T16:49:43.243Z,7.03
2022-11-18T16:52:11.684Z,8.60
2022-11-18T16:54:44.677Z,9.17
2022-11-18T16:57:14.631Z,7.27
2022-11-18T16:59:42.719Z,8.33
2022-11-18T17:02:14.374Z,7.10
2022-11-18T17:04:42.758Z,8.73
2022-11-18T17:07:11.293Z,7.20
2022-11-18T17:09:39.855Z,7.47
2022-11-18T17:12:08.690Z,7.57
2022-11-18T17:14:38.254Z,10.10
2022-11-18T17:17:07.342Z,21.73
2022-11-18T17:19:36.715Z,10.37
2022-11-18T17:22:05.385Z,53.20
2022-11-18T17:24:33.418Z,61.07
2022-11-18T17:27:01.776Z,69.50
2022-11-18T17:29:30.079Z,63.17
2022-11-18T17:31:58.747Z,63.67
2022-11-18T17:34:26.827Z,56.73
2022-11-18T17:37:00.195Z,70.37
2022-11-18T17:39:31.998Z,66.37
2022-11-18T17:42:15.640Z,63.13
2022-11-18T17:44:43.944Z,70.90
2022-11-18T17:47:12.393Z,61.87
2022-11-18T17:49:40.420Z,62.23
2022-11-18T17:52:10.788Z,70.73
2022-11-18T17:54:38.897Z,52.47
2022-11-18T17:57:07.170Z,60.13
2022-11-18T17:59:35.385Z,54.67
2022-11-18T18:02:03.717Z,45.03
2022-11-18T18:04:32.055Z,49.27
2022-11-18T18:07:00.444Z,31.17
2022-11-18T18:09:31.376Z,25.13
2022-11-18T18:12:20.898Z,32.17
2022-11-18T18:14:48.060Z,17.37
2022-11-18T18:17:17.039Z,12.07
2022-11-18T18:19:45.380Z,16.13
2022-11-18T18:22:13.808Z,28.63
2022-11-18T18:24:43.217Z,34.13
2022-11-18T18:27:11.701Z,28.60
2022-11-18T18:29:39.886Z,16.77
2022-11-18T18:32:08.207Z,14.87
2022-11-18T18:34:36.456Z,11.87
2022-11-18T18:37:05.056Z,14.67
2022-11-18T18:39:33.198Z,17.63
2022-11-18T18:42:03.745Z,23.30
2022-11-18T18:44:45.870Z,27.23
2022-11-18T18:47:14.727Z,30.10
2022-11-18T18:49:42.802Z,22.90
2022-11-18T18:52:11.554Z,15.20
2022-11-18T18:54:39.715Z,14.23
2022-11-18T18:57:09.439Z,11.23
2022-11-18T18:59:37.834Z,8.40
2022-11-18T19:02:06.146Z,9.07
2022-11-18T19:04:34.332Z,8.13
2022-11-18T19:07:02.761Z,7.90
2022-11-18T19:09:30.823Z,8.47
2022-11-18T19:12:16.800Z,8.20
2022-11-18T19:14:46.301Z,8.00
2022-11-18T19:17:15.081Z,8.53
2022-11-18T19:20:01.091Z,8.30
2022-11-18T19:22:31.423Z,8.63
2022-11-18T19:25:00.854Z,9.03
2022-11-18T19:27:30.470Z,7.53
2022-11-18T19:30:00.624Z,7.37
2022-11-18T19:32:29.223Z,7.70
2022-11-18T19:34:57.315Z,7.75
2022-11-18T19:37:26.377Z,7.43
2022-11-18T19:39:54.944Z,7.87
2022-11-18T19:42:23.473Z,6.80
2022-11-18T19:44:52.121Z,7.10
2022-11-18T19:47:21.850Z,7.90
2022-11-18T19:49:50.249Z,5.73
2022-11-18T19:52:18.727Z,6.27
2022-11-18T19:54:47.447Z,6.90
2022-11-18T19:57:16.548Z,6.30
2022-11-18T19:59:46.490Z,6.90
2022-11-18T20:02:15.725Z,7.70
2022-11-18T20:05:06.476Z,7.37
2022-11-18T20:07:36.899Z,6.63
2022-11-18T20:10:09.293Z,7.03
2022-11-18T20:12:38.467Z,7.40
2022-11-18T20:15:17.873Z,7.43
2022-11-18T20:17:47.101Z,6.97
2022-11-18T20:20:18.715Z,6.43
2022-11-18T20:22:47.764Z,7.00
2022-11-18T20:25:16.440Z,7.57
2022-11-18T20:27:45.383Z,6.87
2022-11-18T20:30:15.457Z,7.77
2022-11-18T20:32:46.041Z,6.53
2022-11-18T20:35:16.609Z,7.30
2022-11-18T20:37:46.682Z,7.37
2022-11-18T20:40:16.692Z,7.77
2022-11-18T20:43:03.029Z,6.67
2022-11-18T20:45:32.234Z,7.53
2022-11-18T20:48:01.927Z,6.60
2022-11-18T20:50:38.413Z,6.70
2022-11-18T20:53:10.627Z,5.90
2022-11-18T20:55:39.902Z,7.43
2022-11-18T20:58:08.419Z,8.03
2022-11-18T21:00:37.197Z,8.17
2022-11-18T21:03:06.566Z,7.27
2022-11-18T21:05:40.521Z,6.73
2022-11-18T21:08:10.638Z,6.53
2022-11-18T21:10:40.116Z,7.57
2022-11-18T21:13:26.623Z,7.33
2022-11-18T21:15:56.997Z,7.50
2022-11-18T21:18:29.536Z,8.00
2022-11-18T21:21:16.767Z,8.27
2022-11-18T21:23:46.756Z,7.30
2022-11-18T21:26:15.447Z,7.23
2022-11-18T21:28:44.162Z,7.80
2022-11-18T21:31:12.389Z,6.77
2022-11-18T21:33:40.994Z,8.03
2022-11-18T21:36:10.937Z,8.93
2022-11-18T21:38:39.434Z,8.47
2022-11-18T21:41:08.412Z,8.47
2022-11-18T21:46:28.506Z,8.30
2022-11-18T21:49:00.141Z,8.10
2022-11-18T21:51:31.516Z,9.60
2022-11-18T21:54:00.520Z,9.97
2022-11-18T21:56:31.136Z,7.93
2022-11-18T21:59:01.323Z,9.57
2022-11-18T22:01:31.064Z,8.57
2022-11-18T22:04:00.685Z,8.10
2022-11-18T22:06:34.097Z,8.30
2022-11-18T22:09:06.055Z,8.77
2022-11-18T22:11:34.257Z,7.23
2022-11-18T22:14:04.422Z,8.60
2022-11-18T22:16:36.583Z,7.97
2022-11-18T22:19:08.144Z,9.17
2022-11-18T22:21:37.909Z,9.03
2022-11-18T22:24:06.987Z,8.80
2022-11-18T22:26:35.107Z,8.97
2022-11-18T22:29:03.466Z,8.33
2022-11-18T22:31:31.848Z,8.47
2022-11-18T22:34:00.222Z,8.53
2022-11-18T22:36:28.385Z,8.57
2022-11-18T22:38:57.955Z,7.97
2022-11-18T22:41:45.562Z,8.43
2022-11-18T22:44:15.575Z,7.67
2022-11-18T22:46:45.411Z,7.97
2022-11-18T22:49:14.439Z,8.77
2022-11-18T22:51:42.583Z,8.27
2022-11-18T22:57:00.399Z,7.93
2022-11-18T22:59:28.667Z,8.17
2022-11-18T23:01:56.772Z,7.53
2022-11-18T23:04:25.236Z,7.37
2022-11-18T23:06:53.402Z,8.60
2022-11-18T23:09:23.046Z,8.27
2022-11-18T23:12:11.023Z,8.37
2022-11-18T23:14:39.382Z,7.77
2022-11-18T23:17:07.639Z,6.87
2022-11-18T23:19:36.930Z,9.20
2022-11-18T23:22:04.963Z,7.97
2022-11-18T23:24:34.935Z,7.30
2022-11-18T23:27:03.011Z,8.30
2022-11-18T23:29:31.600Z,7.80
2022-11-18T23:31:59.634Z,7.70
2022-11-18T23:34:28.133Z,7.87
2022-11-18T23:36:56.131Z,7.30
2022-11-18T23:39:24.397Z,7.37
2022-11-18T23:41:53.743Z,8.17
2022-11-18T23:44:42.011Z,7.47
2022-11-18T23:47:10.083Z,7.63
2022-11-18T23:49:38.361Z,7.43
2022-11-18T23:52:06.526Z,7.20
2022-11-18T23:54:34.824Z,8.33
2022-11-18T23:57:05.484Z,7.10
2022-11-18T23:59:34.058Z,6.90
